Tiempo atmosférico en la estación meteorológica de Ferrol, A Coruña (4 m.)



Fecha
DESCASC
Temp. máxima en grados centígrados (hora)
DESCASC
Temp. mínima en grados centígrados (hora)
DESCASC
Temp. media en grados centígrados
DESCASC
Racha de viento máxima en m/sg (hora)
DESCASC
Velocidad máxima media en intervalos de 10 minutos(hora)
DESCASC
Precipitaciones diarias en mm
DESCASC
Precipitaciones de 00:00 a 06:00 en mm
DESCASC
Precipitaciones de 06:00 a 12:00 en mm
DESCASC
Precipitaciones de 12:00 a 18:00 en mm
DESCASC
Precipitaciones de 18:00 a 24:00 en mm
DESCASC
17-10-2019 18.1 (17:00) 13.5 (07:00) 15.8 10.56 (16:00) 6.94 (16:00) 1.9 0 1.8 0.1 0
16-10-2019 18.1 (14:10) 14.5 (23:10) 16.3 15.28 (14:00) 9.44 (12:00) 35.2 5.3 6.9 18.4 4.6
15-10-2019 16.4 (14:30) 11 (05:10) 13.7 11.11 (15:30) 7.5 (22:00) 4.1 0.6 0 1 2.5
14-10-2019 16.2 (12:30) 9.8 (20:50) 13 11.11 (14:00) 6.11 (16:50) 36 2.7 4.7 12 16.6
13-10-2019 18.8 (04:10) 13 (00:00) 15.9 15 (05:20) 9.44 (05:30) 26.1 3.3 8.7 4.8 9.3
12-10-2019 21.9 (14:20) 13.8 (00:00) 17.8 13.06 (15:40) 8.06 (15:50) 0 0 0 0 0
11-10-2019 20.4 (15:50) 12.5 (00:00) 16.4 6.39 (14:30) 4.17 (14:30) 0 0 0 0 0
10-10-2019 21.6 (15:30) 10.1 (00:00) 15.9 8.06 (16:50) 5.28 (17:00) 0 0 0 0 0
09-10-2019 18.4 (14:50) 12 (00:00) 15.2 6.67 (16:50) 3.33 (10:10) 0 0 0 0 0
08-10-2019 19.7 (02:50) 13.1 (00:00) 16.4 10.28 (10:00) 5 (10:00) 5 0 5 0 0
07-10-2019 22.7 (14:00) 11.7 (00:00) 17.2 4.72 (13:30) 3.33 (13:30) 0 0 0 0 0
06-10-2019 20.8 (17:20) 14 (00:00) 17.4 5.28 (14:20) 3.61 (18:50) 2.5 2.4 0.1 0 0
05-10-2019 20.7 (17:10) 11.1 (00:00) 15.9 6.11 (14:10) 4.17 (14:40) 0 0 0 0 0
04-10-2019 20.9 (16:50) 12.5 (00:00) 16.7 6.11 (02:40) 2.78 (19:10) 0.1 0.1 0 0 0
03-10-2019 20.2 (14:10) 11.5 (00:00) 15.9 8.61 (11:50) 5.28 (12:10) 2.3 0 0 0 2.3
02-10-2019 18.6 (17:20) 13.6 (00:00) 16.1 6.94 (00:20) 3.61 (00:20) 1.3 1.2 0 0.1 0
01-10-2019 21.5 (15:30) 15.4 (00:00) 18.4 10.28 (14:30) 6.11 (13:00) 1.2 1.2 0 0 0
30-09-2019 -- (--) -- (--) -- -- (--) -- (--) -- -- 1.4 0.1 0
29-09-2019 -- (--) -- (--) -- -- (--) -- (--) -- -- -- -- --
28-09-2019 -- (--) -- (--) -- -- (--) -- (--) -- -- -- -- --
27-09-2019 -- (--) -- (--) -- -- (--) -- (--) -- -- -- -- --
26-09-2019 -- (--) -- (--) -- -- (--) -- (--) -- -- -- -- --

Gráficas

Temp. máximas Temp. mínimas Temp. medias Precipitaciones Rachas de viento máximas Velocidades máximas media en intervalos de 10 minutos

Datos horarios

Fecha y hora oficial Temperatura (ºC) Velocidad del viento (km/h) Dirección del viento Racha (km/h) Dirección de racha Precipitación (mm) Presión (hPa) Tendencia (hPa) Humedad (%)
2019-10-19 23:00:00 10.6 5 Noroeste 7 Noroeste 0 1006.7 1.3 95
2019-10-19 22:00:00 10.2 3 Norte 5 Norte 0 1006.4 1.3 95
2019-10-19 21:00:00 10.7 3 Norte 29 Nordeste 0.2 1006 1.2 95
2019-10-19 20:00:00 12.3 0 Calma 6 Norte 0.3 1005.4 1 95
2019-10-19 19:00:00 12.6 3 Norte 13 Norte 1.1 1005.1 0.6 95
2019-10-19 18:00:00 13 5 Norte 13 Norte 0 1004.8 -0.1 93
2019-10-19 17:00:00 13.3 6 Nordeste 11 Norte 0 1004.4 -1.3 95
2019-10-19 16:00:00 13 5 Nordeste 10 Nordeste 0.1 1004.5 -1.3 95
2019-10-19 15:00:00 12.7 0 Calma 5 Norte 1.8 1004.9 -0.9 95
2019-10-19 14:00:00 12.6 2 Noroeste 8 Sudoeste 1.3 1005.7 -0.6 95
2019-10-19 13:00:00 12.8 3 Sudoeste 6 Sudoeste 0.8 1005.8 -0.6 95
2019-10-19 12:00:00 12.9 4 Sudoeste 10 Sudoeste 0.2 1005.8 -0.3 95
2019-10-19 11:00:00 12.7 5 Sudoeste 8 Sudoeste 0 1006.3 0 96
2019-10-19 10:00:00 12.6 3 Sudoeste 6 Oeste 0 1006.4 -0.3 96
2019-10-19 09:00:00 12.4 0 Calma 6 Sudoeste 0 1006.1 -0.7 96
2019-10-19 08:00:00 12.8 2 Oeste 8 Sudoeste 0 1006.3 -1.1 95
2019-10-19 07:00:00 13 4 Sudoeste 9 Sudoeste 0 1006.7 -1.1 95
2019-10-19 06:00:00 12.9 5 Sudoeste 11 Sudoeste 0 1006.8 -1.6 95
2019-10-19 05:00:00 13.3 3 Sudoeste 14 Sudoeste 0 1007.4 -1.2 95
2019-10-19 04:00:00 13.3 12 Sudoeste 21 Sudoeste 1 1007.8 -1.3 96
2019-10-19 03:00:00 13.3 8 Sudoeste 18 Sudoeste 1.4 1008.4 -1.1 96
2019-10-19 02:00:00 13.8 10 Sudoeste 20 Sudoeste 0.3 1008.6 -1.4 95
2019-10-19 01:00:00 13.7 10 Sudoeste 17 Sur 1.2 1009.1 -0.8 95
2019-10-19 00:00:00 13.6 9 Sur 13 Sur 1.8 1009.5 -0.9 95
2019-10-18 23:00:00 13.8 6 Norte 16 Norte 2.4 1010 -0.5 95
2019-10-18 22:00:00 14.4 8 Sur 23 Sur 6.2 1009.9 -0.9 95
2019-10-18 21:00:00 14.6 7 Sudoeste 18 Sur 1.7 1010.4 -1 95
2019-10-18 20:00:00 14.6 14 Sur 18 Sur 0.1 1010.5 -1.5 95
2019-10-18 19:00:00 14.9 7 Sur 17 Sudoeste 0.8 1010.8 -1.7 94
2019-10-18 18:00:00 15 2 Oeste 20 Sur 0.3 1011.4 -1.7 93
2019-10-18 17:00:00 14.6 11 Sudoeste 27 Sudoeste 3 1012 -2 93
2019-10-18 16:00:00 16.1 11 Sudoeste 24 Sudoeste 0 1012.5 -2.2 84
2019-10-18 15:00:00 15.8 15 Sur 33 Sudoeste 0 1013.1 -1.6 89
2019-10-18 14:00:00 14.9 12 Sudoeste 26 Sudoeste 0.5 1014 -1.2 93
2019-10-18 13:00:00 14.8 10 Sur 22 Noroeste 0 1014.7 -0.4 92
2019-10-18 12:00:00 15.5 12 Sudoeste 20 Sudoeste 0 1014.7 -0.1 93
2019-10-18 11:00:00 14.6 15 Sudoeste 25 Sudoeste 0 1015.2 0.3 93
2019-10-18 10:00:00 13.8 2 Sudoeste 10 Sudoeste 0 1015.1 0.1 95
2019-10-18 09:00:00 13.3 2 Noroeste 14 Sudoeste 0 1014.8 0 95
2019-10-18 08:00:00 13.9 0 Calma 18 Sudoeste 0 1014.9 0.1 93
2019-10-18 07:00:00 13.7 3 Sudoeste 10 Sudoeste 0 1015 -0.3 93
2019-10-18 06:00:00 14 5 Sudoeste 23 Sudoeste 0.1 1014.8 -0.5 93
2019-10-18 05:00:00 13.7 3 Sur 12 Sur 0 1014.8 -0.2 93
2019-10-18 04:00:00 13.7 7 Sudoeste 18 Sudoeste 0 1015.3 0.3 93
2019-10-18 03:00:00 13.3 13 Sur 26 Sudoeste 0 1015.3 0.2 92
2019-10-18 02:00:00 14 8 Sudoeste 23 Sudoeste 0 1015 0.2 92
2019-10-18 01:00:00 14 6 Sudoeste 19 Sudoeste 0 1015 0.4 93
2019-10-18 00:00:00 13.8 3 Sudoeste 20 Sur 0 1015.1 0.6 92
2019-10-17 23:00:00 13.6 4 Sudoeste 22 Sudoeste 0 1014.8 1 91
2019-10-17 22:00:00 14.9 16 Sudoeste 37 Sur 0 1014.6 0.8 88
2019-10-17 21:00:00 15 16 Sudoeste 29 Sudoeste 0 1014.5 0.7 84
2019-10-17 20:00:00 14.7 20 Sudoeste 37 Sudoeste 0 1013.8 0.1 82
2019-10-17 19:00:00 16.1 4 Sudoeste 19 Sudoeste 0 1013.8 0 75
2019-10-17 18:00:00 17.2 8 Sudoeste 34 Sudoeste 0 1013.8 -0.3 66
2019-10-17 17:00:00 17.8 21 Sudoeste 36 Sudoeste 0 1013.7 -0.4 62
2019-10-17 16:00:00 17.9 25 Sudoeste 38 Sudoeste 0 1013.8 -0.6 62
2019-10-17 15:00:00 17.1 18 Sudoeste 36 Sudoeste 0 1014.1 0 71
2019-10-17 14:00:00 16.8 16 Sudoeste 33 Sudoeste 0 1014.1 -0.4 80
2019-10-17 13:00:00 15.8 12 Sudoeste 29 Sur 0.1 1014.4 0.5 88
2019-10-17 12:00:00 15.3 15 Sudoeste 21 Sudoeste 0 1014.1 1.1 95
2019-10-17 11:00:00 14.1 16 Sudoeste 23 Sur 0.2 1014.5 2 97
2019-10-17 10:00:00 13.9 10 Sudoeste 21 Sudoeste 0.7 1013.9 1.6 97
2019-10-17 09:00:00 13.9 6 Sudoeste 16 Sur 0 1013 1.4 97
2019-10-17 08:00:00 13.6 10 Sur 17 Sudoeste 0.2 1012.5 0.8 97
2019-10-17 07:00:00 13.7 6 Sur 24 Norte 0.7 1012.3 0.7 97
2019-10-17 06:00:00 13.9 12 Norte 21 Norte 0 1011.6 -0.2 97
2019-10-17 05:00:00 14.5 0 Calma 9 Oeste 0 1011.7 0.2 97
2019-10-17 04:00:00 14.4 0 Calma 11 Sudoeste 0 1011.6 0.1 97
2019-10-17 03:00:00 14.4 5 Sudoeste 10 Sudoeste 0 1011.8 0.4 97
2019-10-17 02:00:00 14.3 7 Sudoeste 11 Sudoeste 0 1011.5 0.3 97
2019-10-17 01:00:00 14.3 2 Noroeste 6 Norte 0 1011.5 0.8 97
2019-10-17 00:00:00 14.7 0 Calma 5 Sur 0 1011.4 0.9 97
2019-10-16 23:00:00 14.7 3 Nordeste 7 Norte 0.5 1011.2 1.3 97
2019-10-16 22:00:00 15.2 4 Norte 12 Norte 0.2 1010.7 0.9 97
2019-10-16 21:00:00 15.5 8 Norte 15 Noroeste 0.5 1010.5 0.8 97
2019-10-16 20:00:00 16.2 6 Sudoeste 12 Sur 0.6 1009.9 0.1 97
2019-10-16 19:00:00 16.3 4 Sur 15 Sudoeste 2.8 1009.8 0.2 96
2019-10-16 18:00:00 16.4 10 Sudoeste 24 Sudoeste 7.1 1009.7 0.5 96
2019-10-16 17:00:00 16.3 12 Sur 33 Sudoeste 10 1009.8 0.2 95
2019-10-16 16:00:00 17 11 Sudoeste 37 Sudoeste 0.8 1009.6 -0.5 93
2019-10-16 15:00:00 17.3 20 Sudoeste 51 Sudoeste 0.2 1009.2 -0.7 93
2019-10-16 14:00:00 17.9 31 Sudoeste 55 Sur 0.1 1009.6 -0.9 91
2019-10-16 13:00:00 17.4 28 Sudoeste 43 Sudoeste 0.2 1010.1 -0.2 91
2019-10-16 12:00:00 17.3 34 Sudoeste 54 Sudoeste 0 1009.9 -0.1 88
2019-10-16 11:00:00 17 20 Sudoeste 41 Sudoeste 0 1010.5 0.4 87
2019-10-16 10:00:00 16.4 18 Sudoeste 40 Sudoeste 0.4 1010.3 -0.1 92
2019-10-16 09:00:00 16.3 26 Sudoeste 46 Sudoeste 0.2 1010 -0.9 92
2019-10-16 08:00:00 16.3 18 Sudoeste 36 Sur 0.2 1010.1 -0.8 93
2019-10-16 07:00:00 15.5 26 Sudoeste 46 Sudoeste 6.1 1010.4 -1 93
2019-10-16 06:00:00 15.6 24 Sudoeste 48 Sudoeste 1.4 1010.9 -1 93
2019-10-16 05:00:00 15.8 27 Sudoeste 47 Sudoeste 1.3 1010.9 -1.4 92
2019-10-16 04:00:00 15.8 28 Sudoeste 48 Sudoeste 0.3 1011.4 -1.2 91
2019-10-16 03:00:00 15.9 27 Sudoeste 40 Sudoeste 1.1 1011.9 -1 91
2019-10-16 02:00:00 15.7 21 Sudoeste 36 Sudoeste 0.5 1012.3 -0.9 92
2019-10-16 01:00:00 15.3 22 Sur 35 Sudoeste 0.7 1012.6 -0.8 93
2019-10-16 00:00:00 15.3 23 Sudoeste 40 Sudoeste 0.5 1012.9 -0.6 92
2019-10-15 23:00:00 15.4 21 Sudoeste 39 Sudoeste 0.5 1013.2 -0.3 92
2019-10-15 22:00:00 15.2 27 Sudoeste 37 Sur 0.5 1013.4 -0.5 92
2019-10-15 21:00:00 15.2 22 Sudoeste 35 Sudoeste 0.2 1013.5 -0.6 92
2019-10-15 20:00:00 15.1 18 Sudoeste 33 Sur 0.1 1013.5 -1 92
2019-10-15 19:00:00 15.1 22 Sudoeste 37 Sur 0.7 1013.9 -1.1 91
2019-10-15 18:00:00 15.7 20 Sudoeste 32 Sudoeste 0.3 1014.1 -1.2 86
2019-10-15 17:00:00 15.5 17 Sudoeste 28 Sudoeste 0.2 1014.5 -1.2 90
2019-10-15 16:00:00 15.1 19 Sudoeste 40 Sudoeste 0.4 1015 -1 90
2019-10-15 15:00:00 16.2 19 Sudoeste 34 Sur 0 1015.3 -1.3 78
2019-10-15 14:00:00 15.9 21 Sudoeste 40 Sudoeste 0 1015.7 -0.9 86
2019-10-15 13:00:00 15.3 18 Sudoeste 37 Sudoeste 0.1 1016 -0.6 88
2019-10-15 12:00:00 15.1 24 Sudoeste 37 Sudoeste 0 1016.6 0.2 86
2019-10-15 11:00:00 14.1 19 Sudoeste 30 Sudoeste 0 1016.6 0.1 92
2019-10-15 10:00:00 12.8 15 Sudoeste 26 Sudoeste 0 1016.6 0 95
2019-10-15 09:00:00 11.5 3 Sudoeste 14 Sudoeste 0 1016.4 -0.2 96
2019-10-15 08:00:00 11.2 0 Calma 12 Sudoeste 0 1016.5 0 95
2019-10-15 07:00:00 11.5 4 Sudoeste 13 Sudoeste 0 1016.6 0 95
2019-10-15 06:00:00 11.1 4 Oeste 14 Sudoeste 0 1016.6 0 95
2019-10-15 05:00:00 11.1 12 Sur 18 Sudoeste 0 1016.5 0 95
2019-10-15 04:00:00 11.3 12 Sudoeste 17 Sudoeste 0 1016.6 0.3 95
2019-10-15 03:00:00 11.5 9 Sudoeste 19 Sudoeste 0.6 1016.6 0.5 95
2019-10-15 02:00:00 11.6 12 Sudoeste 18 Sur 0 1016.5 0.6 95
2019-10-15 01:00:00 12 9 Sudoeste 18 Sudoeste 0 1016.3 1.4 95
2019-10-15 00:00:00 11.6 14 Sudoeste 22 Sudoeste 0 1016.1 1.4 95
2019-10-14 23:00:00 11.1 14 Sudoeste 22 Sudoeste 0 1015.9 2.3 95
2019-10-14 22:00:00 10.7 7 Sur 21 Sur 1.9 1014.9 2.6 94
2019-10-14 21:00:00 10 5 Noroeste 30 Oeste 13.6 1014.7 3 92
2019-10-14 20:00:00 11.9 3 Nordeste 12 Sur 0.1 1013.6 2.8 93
2019-10-14 19:00:00 12.1 2 Este 20 Noroeste 1 1012.3 2.3 92
2019-10-14 18:00:00 12.9 4 Sudeste 39 Sudoeste 2.3 1011.7 2 89
2019-10-14 17:00:00 13.9 17 Sudoeste 34 Sudoeste 0 1010.8 1.5 77
2019-10-14 16:00:00 14 9 Norte 30 Norte 0 1010 1.9 78
2019-10-14 15:00:00 13.5 10 Sudoeste 28 Sudoeste 2.2 1009.7 2.7 93
2019-10-14 14:00:00 12.3 10 Sudoeste 40 Sudoeste 3.6 1009.3 3.3 92
2019-10-14 13:00:00 13.6 6 Norte 27 Noroeste 3.9 1008.1 2.7 92
2019-10-14 12:00:00 14.4 10 Sur 24 Sudoeste 0 1007 2.2 94
2019-10-14 11:00:00 13.4 2 Noroeste 22 Sudoeste 0.1 1006 1.5 95
2019-10-14 10:00:00 13.3 16 Sudoeste 25 Sudoeste 0.1 1005.4 0.8 95
2019-10-14 09:00:00 13.2 8 Sudoeste 25 Sudoeste 2.8 1004.8 -0.1 95
2019-10-14 08:00:00 13.2 14 Sudoeste 24 Sudoeste 1.5 1004.5 -0.9 94
2019-10-14 07:00:00 13.4 13 Sudoeste 28 Sur 0.2 1004.6 -1.4 93
2019-10-14 06:00:00 13.5 14 Sudoeste 30 Sudoeste 0 1004.9 -2.1 93
2019-10-14 05:00:00 13.2 17 Sudoeste 28 Sudoeste 0 1005.4 -2 95
2019-10-14 04:00:00 12.9 17 Sudoeste 23 Sudoeste 0.4 1006 -1.8 95
2019-10-14 03:00:00 12.8 6 Sudoeste 17 Sudoeste 1.3 1007 -1.7 95
2019-10-14 02:00:00 13 11 Sudoeste 17 Sudoeste 0.7 1007.4 -1.5 95
2019-10-14 01:00:00 12.7 4 Oeste 10 Sudoeste 0.3 1007.8 -1.4 95
2019-10-14 00:00:00 13 7 Sudoeste 17 Sudoeste 1.1 1008.7 -0.3 95
2019-10-13 23:00:00 13.5 8 Sudoeste 22 Sudoeste 1.6 1008.9 -0.6 95
2019-10-13 22:00:00 14 9 Sudoeste 18 Sur 1.5 1009.2 0.1 95
2019-10-13 21:00:00 14.4 7 Sur 12 Sur 1.4 1009 -0.5 95
2019-10-13 20:00:00 14.2 7 Sudoeste 11 Sudoeste 2.5 1009.5 -0.5 95
2019-10-13 19:00:00 14 0 Calma 4 Sur 1.2 1009.1 -0.8 95
2019-10-13 18:00:00 14.1 0 Calma 14 Sudoeste 1.5 1009.5 -0.9 95
2019-10-13 17:00:00 14.3 8 Sudoeste 15 Sudoeste 0.8 1010 -0.6 95
2019-10-13 16:00:00 15 0 Calma 7 Sur 0.7 1009.9 -0.9 95
2019-10-13 15:00:00 15.4 5 Sudoeste 10 Sudoeste 0.5 1010.4 -0.2 95
2019-10-13 14:00:00 15.6 6 Sudoeste 11 Sudoeste 0.3 1010.6 0.5 95
2019-10-13 13:00:00 15.1 8 Sudoeste 17 Sudoeste 1 1010.8 1.8 95
2019-10-13 12:00:00 15.3 8 Sur 16 Sur 0.7 1010.6 2.7 95
2019-10-13 11:00:00 15.1 10 Sur 19 Sudoeste 0.3 1010.1 3.5 95
2019-10-13 10:00:00 14.8 8 Sudoeste 18 Sur 0 1009 3.5 95
2019-10-13 09:00:00 14.3 9 Sur 19 Sudoeste 1.1 1007.9 3.1 95
2019-10-13 08:00:00 14.8 10 Sudoeste 19 Sudoeste 0.8 1006.6 3 95
2019-10-13 07:00:00 15.1 4 Norte 29 Sudoeste 5.8 1005.5 1 95
2019-10-13 06:00:00 16 5 Sudoeste 54 Sudoeste 3.3 1004.8 -0.6 93
2019-10-13 05:00:00 18.5 29 Sudoeste 51 Sudoeste 0 1003.6 -2.4 80
2019-10-13 04:00:00 18.6 23 Sur 42 Sudoeste 0 1004.5 -2.2 77
2019-10-13 03:00:00 18.6 30 Sudoeste 49 Sudoeste 0 1005.4 -1.3 75
2019-10-13 02:00:00 18.6 19 Sudoeste 37 Sur 0 1006 -1.1 73
2019-10-13 01:00:00 18.3 21 Sudoeste 36 Sudoeste 0 1006.7 -0.7 73
2019-10-13 00:00:00 18.3 22 Sudoeste 38 Sudoeste 0 1006.7 -1 74
2019-10-12 23:00:00 18.4 18 Sudoeste 35 Sudoeste 0 1007.1 -0.6 75
2019-10-12 22:00:00 18.4 22 Sudoeste 32 Sudoeste 0 1007.4 -0.6 73
2019-10-12 21:00:00 18.6 19 Sudoeste 37 Sur 0 1007.7 -0.2 73
2019-10-12 20:00:00 19.1 21 Sudoeste 34 Sudoeste 0 1007.7 -0.6 67
2019-10-12 19:00:00 19.9 19 Sudoeste 38 Sudoeste 0 1008 -0.1 65
2019-10-12 18:00:00 20.7 22 Sudoeste 44 Sudoeste 0 1007.9 -1 64
2019-10-12 17:00:00 21.1 21 Sudoeste 37 Sudoeste 0 1008.3 -1.3 62
2019-10-12 16:00:00 21.3 25 Sudoeste 47 Sur 0 1008.1 -2.2 61
2019-10-12 15:00:00 21.3 23 Sudoeste 41 Sudoeste 0 1008.9 -1.9 61
2019-10-12 14:00:00 21.4 24 Sur 37 Sudoeste 0 1009.6 -0.9 62
2019-10-12 13:00:00 19.9 18 Sur 29 Sur 0 1010.3 -0.5 71
2019-10-12 12:00:00 19.1 15 Sur 31 Sudoeste 0 1010.8 0 75
2019-10-12 11:00:00 17.8 20 Sudoeste 28 Sudoeste 0 1010.5 -0.2 81
2019-10-12 10:00:00 16.6 12 Sudoeste 18 Sudoeste 0 1010.8 0.3 88
2019-10-12 09:00:00 16.1 14 Sudoeste 26 Sur 0 1010.8 -0.1 88
2019-10-12 08:00:00 16.2 14 Sudoeste 20 Sudoeste 0 1010.7 -0.5 88
2019-10-12 07:00:00 16.1 10 Sudoeste 22 Sudoeste 0 1010.5 -1.5 88
2019-10-12 06:00:00 15.9 10 Sudoeste 18 Sur 0 1010.9 -1.8 89
2019-10-12 05:00:00 15.6 15 Sudoeste 23 Sudoeste 0 1011.2 -1.7 89
2019-10-12 04:00:00 15.1 9 Sudoeste 21 Sudoeste 0 1012 -1.7 92
2019-10-12 03:00:00 15.1 10 Sudoeste 20 Sudoeste 0 1012.7 -1.3 92
2019-10-12 02:00:00 14.4 13 Sudoeste 22 Sudoeste 0 1012.9 -1 94
2019-10-12 01:00:00 14.3 0 Calma 13 Sudoeste 0 1013.7 0 94
2019-10-12 00:00:00 15 2 Sudoeste 11 Sudoeste 0 1014 0.2 93
2019-10-11 23:00:00 14.6 6 Sudoeste 13 Sudoeste 0 1013.9 0.1 93
2019-10-11 22:00:00 14.6 0 Calma 10 Noroeste 0 1013.7 -0.5 92
2019-10-11 21:00:00 15.3 4 Norte 16 Noroeste 0 1013.8 -0.5 90
2019-10-11 20:00:00 16.6 5 Norte 16 Noroeste 0 1013.8 -0.5 86
2019-10-11 19:00:00 17.3 7 Norte 19 Noroeste 0 1014.2 -0.4 84
2019-10-11 18:00:00 18.2 6 Norte 19 Norte 0 1014.3 -0.7 78
2019-10-11 17:00:00 18.9 9 Norte 21 Norte 0 1014.3 -1.8 73
2019-10-11 16:00:00 20 12 Sudoeste 20 Sudoeste 0 1014.6 -2.2 72
2019-10-11 15:00:00 18.5 13 Sudoeste 23 Sudoeste 0 1015 -2.1 75
2019-10-11 14:00:00 16.6 10 Sudoeste 17 Sudoeste 0 1016.1 -1.3 88
2019-10-11 13:00:00 16 7 Sudoeste 13 Sur 0 1016.8 -0.4 93
2019-10-11 12:00:00 15.1 6 Sudoeste 9 Sudoeste 0 1017.1 0.2 95
2019-10-11 11:00:00 13.9 2 Sudoeste 8 Sudoeste 0 1017.4 0.8 95
2019-10-11 10:00:00 13.2 6 Sudoeste 14 Sudoeste 0 1017.2 0.6 95
2019-10-11 09:00:00 12.9 10 Sudoeste 13 Sudoeste 0 1016.9 0.4 97
2019-10-11 08:00:00 13.3 8 Sudoeste 14 Sur 0 1016.6 -0.2 96
2019-10-11 07:00:00 13.8 5 Sur 10 Sur 0 1016.6 -0.6 95
2019-10-11 06:00:00 14 9 Sur 12 Sur 0 1016.5 -0.9 95
2019-10-11 05:00:00 14.4 5 Sudoeste 10 Sudoeste 0 1016.8 -0.8 95
2019-10-11 04:00:00 13.8 2 Noroeste 7 Nordeste 0 1017.2 -0.8 95
2019-10-11 03:00:00 13.7 6 Nordeste 8 Nordeste 0 1017.4 -1.1 95
2019-10-11 02:00:00 12.6 4 Nordeste 5 Nordeste 0 1017.6 -1.3 95
2019-10-11 01:00:00 13.3 0 Calma 8 Norte 0 1018 -1 95
2019-10-11 00:00:00 13.5 4 Norte 7 Norte 0 1018.5 0 95
2019-10-10 23:00:00 14.5 4 Norte 6 Norte 0 1018.9 0.4 95
2019-10-10 22:00:00 15.1 2 Norte 6 Norte 0 1019 0.5 93
2019-10-10 21:00:00 15.3 3 Norte 10 Norte 0 1018.5 -0.4 93
2019-10-10 20:00:00 16.6 7 Norte 17 Norte 0 1018.5 -0.8 91
2019-10-10 19:00:00 17.5 11 Nordeste 24 Norte 0 1018.5 -1.1 88
2019-10-10 18:00:00 18.5 15 Nordeste 26 Norte 0 1018.9 -1.6 84
2019-10-10 17:00:00 19 19 Noroeste 29 Noroeste 0 1019.3 -2.2 77
2019-10-10 16:00:00 20.4 10 Norte 19 Norte 0 1019.6 -2.6 70
2019-10-10 15:00:00 20.8 10 Nordeste 17 Norte 0 1020.5 -1.8 68
2019-10-10 14:00:00 20 6 Noroeste 18 Noroeste 0 1021.5 -1.4 73
2019-10-10 13:00:00 18.6 0 Calma 6 Sudeste 0 1022.2 -0.6 78
2019-10-10 12:00:00 16.8 0 Calma 4 Sur 0 1022.3 -0.1 82
2019-10-10 11:00:00 14.5 2 Sur 7 Sudoeste 0 1022.9 0.5 92
2019-10-10 10:00:00 12.5 3 Sur 7 Sudeste 0 1022.8 0.5 97
2019-10-10 09:00:00 11.1 3 Nordeste 5 Nordeste 0 1022.4 -0.1 97
2019-10-10 08:00:00 11.1 0 Calma 8 Nordeste 0 1022.4 -0.3 97
2019-10-10 07:00:00 10.6 4 Nordeste 7 Norte 0 1022.3 -0.6 95
2019-10-10 06:00:00 10.4 5 Nordeste 7 Nordeste 0 1022.5 -0.7 95
2019-10-10 05:00:00 10.6 0 Calma 6 Sudoeste 0 1022.7 -0.6 95
2019-10-10 04:00:00 11.3 2 Oeste 7 Sudoeste 0 1022.9 -0.7 95
2019-10-10 03:00:00 11.6 0 Calma 6 Sudoeste 0 1023.2 -0.4 94
2019-10-10 02:00:00 12.7 4 Sudoeste 7 Sur 0 1023.3 -0.3 95
2019-10-10 01:00:00 13.4 4 Sudoeste 9 Sudoeste 0 1023.6 0.4 95
2019-10-10 00:00:00 12.7 0 Calma 4 Norte 0 1023.6 0.3 94
2019-10-09 23:00:00 12.4 3 Norte 5 Noroeste 0 1023.6 0.6 94
2019-10-09 22:00:00 12.8 0 Calma 3 Norte 0 1023.2 0.4 93
2019-10-09 21:00:00 13.5 0 Calma 4 Noroeste 0 1023.3 0.6 92
2019-10-09 20:00:00 14.7 0 Calma 8 Noroeste 0 1023 0.2 88
2019-10-09 19:00:00 16.3 4 Noroeste 17 Oeste 0 1022.8 -0.2 82
2019-10-09 18:00:00 17.2 5 Noroeste 19 Norte 0 1022.7 -0.5 77
2019-10-09 17:00:00 17.8 8 Noroeste 24 Norte 0 1022.8 -0.3 69
2019-10-09 16:00:00 17.9 6 Noroeste 22 Noroeste 0 1023 -0.3 68
2019-10-09 15:00:00 17.6 5 Noroeste 21 Noroeste 0 1023.2 -0.4 68
2019-10-09 14:00:00 17.3 0 Calma 18 Sudoeste 0 1023.1 -0.2 69
2019-10-09 13:00:00 17.7 11 Sudoeste 15 Sudoeste 0 1023.3 0.1 73
2019-10-09 12:00:00 16.7 9 Sur 12 Sur 0 1023.6 1.1 84
2019-10-09 11:00:00 14.7 8 Sur 16 Sudoeste 0 1023.3 1.3 94
2019-10-09 10:00:00 13.2 10 Sudoeste 14 Sudoeste 0 1023.2 1.3 95
2019-10-09 09:00:00 12.8 7 Sudoeste 11 Sudoeste 0 1022.5 0.9 95
2019-10-09 08:00:00 12.5 3 Oeste 14 Sudoeste 0 1022 0.4 95
2019-10-09 07:00:00 13 7 Sudoeste 14 Sudoeste 0 1021.9 0.3 95
2019-10-09 06:00:00 13.2 7 Sudoeste 16 Sudoeste 0 1021.6 -0.2 95
2019-10-09 05:00:00 12.5 8 Sudoeste 10 Sudoeste 0 1021.6 -0.2 95
2019-10-09 04:00:00 13.3 9 Sudoeste 11 Sudoeste 0 1021.6 -0.2 95
2019-10-09 03:00:00 13.6 8 Sudoeste 14 Sudoeste 0 1021.8 0.1 95
2019-10-09 02:00:00 13.1 4 Sudoeste 14 Sudoeste 0 1021.8 0.2 95
2019-10-09 01:00:00 14 9 Sudoeste 14 Oeste 0 1021.8 0.1 95
2019-10-09 00:00:00 13.2 0 Calma 5 Noroeste 0 1021.7 0.4 95
2019-10-08 23:00:00 13.8 3 Noroeste 8 Oeste 0 1021.6 0.6 94
2019-10-08 22:00:00 14.4 2 Noroeste 7 Noroeste 0 1021.7 1.1 93
2019-10-08 21:00:00 15 0 Calma 9 Oeste 0 1021.3 0.9 93
2019-10-08 20:00:00 15.7 5 Noroeste 12 Noroeste 0 1021 0.7 89
2019-10-08 19:00:00 16.8 6 Noroeste 20 Oeste 0 1020.6 0.2 84
2019-10-08 18:00:00 17.9 9 Noroeste 17 Oeste 0 1020.4 0.2 82
2019-10-08 17:00:00 17.8 8 Noroeste 21 Noroeste 0 1020.3 -0.1 87
2019-10-08 16:00:00 17.4 13 Sudoeste 19 Sudoeste 0 1020.4 -0.2 86
2019-10-08 15:00:00 17.6 10 Sudoeste 13 Sudoeste 0 1020.2 -0.4 91
2019-10-08 14:00:00 16.8 6 Sudeste 10 Sudeste 0 1020.4 0.8 92
2019-10-08 13:00:00 16.2 3 Este 18 Norte 0 1020.6 2.4 94
2019-10-08 12:00:00 15.5 12 Nordeste 27 Norte 0.2 1020.6 3.3 95
2019-10-08 11:00:00 16.3 18 Nordeste 33 Norte 0.4 1019.6 2.5 95
2019-10-08 10:00:00 16.8 18 Norte 37 Norte 2.3 1018.2 1.1 95
2019-10-08 09:00:00 18.7 6 Sudoeste 10 Sudoeste 1.7 1017.3 0.2 95
2019-10-08 08:00:00 18.8 6 Sur 14 Sudoeste 0.4 1017.1 -0.5 95
2019-10-08 07:00:00 19.1 5 Sudoeste 9 Sudoeste 0 1017.1 -0.8 95
2019-10-08 06:00:00 19.1 0 Calma 7 Sudoeste 0 1017.1 -1.1 95
2019-10-08 05:00:00 19.3 5 Sudoeste 15 Sur 0 1017.6 -1.1 95
2019-10-08 04:00:00 19.5 4 Oeste 10 Noroeste 0 1017.9 -1.3 95
2019-10-08 03:00:00 19.6 6 Sudoeste 12 Sudoeste 0 1018.2 -1.4 95
2019-10-08 02:00:00 19 7 Sudoeste 10 Sudoeste 0 1018.7 -1 94
2019-10-08 01:00:00 18.9 5 Sudoeste 10 Sudoeste 0 1019.2 -0.2 95
2019-10-08 00:00:00 18.9 6 Sudoeste 13 Sudoeste 0 1019.6 0.4 94
2019-10-07 23:00:00 19.6 3 Sudoeste 9 Oeste 0 1019.7 0.7 93
2019-10-07 22:00:00 19.8 5 Sudoeste 11 Sudoeste 0 1019.4 0 92
2019-10-07 21:00:00 20 8 Sudoeste 12 Sudoeste 0 1019.2 -0.3 89
2019-10-07 20:00:00 20.5 0 Calma 13 Sudoeste 0 1019 -0.8 88
2019-10-07 19:00:00 21.6 5 Sudoeste 12 Sudoeste 0 1019.4 -0.6 78
2019-10-07 18:00:00 21.9 0 Calma 8 Nordeste 0 1019.5 -0.7 68
2019-10-07 17:00:00 21.8 4 Sur 8 Sudoeste 0 1019.8 -1 64
2019-10-07 16:00:00 21.9 7 Sudoeste 10 Sudoeste 0 1020 -1.1 62
2019-10-07 15:00:00 21.8 7 Sudoeste 15 Sudoeste 0 1020.2 -1.1 60
2019-10-07 14:00:00 22.3 9 Sudoeste 17 Sudoeste 0 1020.8 -0.6 52
2019-10-07 13:00:00 21 4 Sudeste 7 Sudeste 0 1021.1 0.1 70
2019-10-07 12:00:00 17.9 3 Sudeste 7 Sudeste 0 1021.3 0.3 87
2019-10-07 11:00:00 15.9 6 Sudeste 9 Sur 0 1021.4 0.2 93
2019-10-07 10:00:00 14.1 8 Sur 14 Sudoeste 0 1021 0 97
2019-10-07 09:00:00 12.6 8 Sudoeste 12 Sudoeste 0 1021 0.6 95
2019-10-07 08:00:00 11.9 5 Sudoeste 8 Sudoeste 0 1021.2 0.9 95
2019-10-07 07:00:00 11.9 3 Nordeste 5 Nordeste 0 1021 0.4 95
2019-10-07 06:00:00 12.1 0 Calma 6 Sudoeste 0 1020.4 -0.7 95
2019-10-07 05:00:00 12.4 5 Sudoeste 7 Sudoeste 0 1020.3 -1 95
2019-10-07 04:00:00 12.8 5 Sudoeste 7 Sudoeste 0 1020.6 -1.3 95
2019-10-07 03:00:00 13.2 3 Sudoeste 7 Sudoeste 0 1021.1 -1 95
2019-10-07 02:00:00 13.4 0 Calma 4 Nordeste 0 1021.3 -0.9 95
2019-10-07 01:00:00 13.6 2 Norte 4 Nordeste 0 1021.9 -0.2 95
2019-10-07 00:00:00 14.1 0 Calma 4 Nordeste 0 1022.1 -0.2 93
2019-10-06 23:00:00 14.7 0 Calma 6 Norte 0 1022.2 -0.2 93
2019-10-06 22:00:00 16.1 3 Norte 7 Norte 0 1022.1 0.2 89
2019-10-06 21:00:00 15.9 5 Norte 12 Norte 0 1022.3 0.7 86
2019-10-06 20:00:00 16.4 6 Norte 11 Norte 0 1022.4 0.9 86
2019-10-06 19:00:00 18 8 Norte 17 Nordeste 0 1021.9 0.1 80
2019-10-06 18:00:00 19.4 8 Norte 14 Norte 0 1021.6 -0.7 75
2019-10-06 17:00:00 20.3 8 Nordeste 17 Nordeste 0 1021.5 -1.3 72
2019-10-06 16:00:00 19.9 2 Norte 9 Norte 0 1021.8 -1.3 75
2019-10-06 15:00:00 19.5 7 Norte 19 Norte 0 1022.3 -0.6 80
2019-10-06 14:00:00 19.3 5 Noroeste 10 Sudoeste 0 1022.8 0.2 82
2019-10-06 13:00:00 19.9 5 Sur 10 Sudoeste 0 1023.1 1 82
2019-10-06 12:00:00 18.1 2 Sur 5 Nordeste 0 1022.9 1.2 93
2019-10-06 11:00:00 16.2 4 Norte 7 Norte 0 1022.6 1.5 97
2019-10-06 10:00:00 15.8 0 Calma 5 Norte 0 1022.1 1.5 97
2019-10-06 09:00:00 15.5 0 Calma 3 Noroeste 0.1 1021.7 1.5 97
2019-10-06 08:00:00 15.5 0 Calma 6 Sudoeste 0 1021.1 0.9 95
2019-10-06 07:00:00 15.4 5 Sudoeste 9 Sudoeste 0 1020.6 0.2 95
2019-10-06 06:00:00 15.4 5 Sudoeste 10 Sudoeste 0.1 1020.2 -0.3 95
2019-10-06 05:00:00 15.2 8 Sudoeste 12 Sudoeste 0.5 1020.2 -0.3 95
2019-10-06 04:00:00 15.2 5 Sudoeste 11 Sudoeste 0.3 1020.4 -0.1 95
2019-10-06 03:00:00 15.2 7 Sudoeste 9 Sudoeste 0.2 1020.5 0 95
2019-10-06 02:00:00 15.9 4 Sudoeste 10 Norte 1.3 1020.5 0.1 93
2019-10-06 01:00:00 16.8 5 Sudoeste 10 Sudoeste 0 1020.5 0.8 86
2019-10-06 00:00:00 16.6 8 Sudoeste 15 Sudoeste 0 1020.5 0.8 86
2019-10-05 23:00:00 16.7 10 Sudoeste 13 Sudoeste 0 1020.4 1 86
2019-10-05 22:00:00 16.1 0 Calma 10 Oeste 0 1019.7 1 88
2019-10-05 21:00:00 17 5 Oeste 13 Oeste 0 1019.7 1.3 82
2019-10-05 20:00:00 17.8 5 Oeste 14 Noroeste 0 1019.4 0.8 77
2019-10-05 19:00:00 18.6 4 Noroeste 11 Noroeste 0 1018.7 0.4 66
2019-10-05 18:00:00 20 5 Sudoeste 17 Sudoeste 0 1018.4 -0.4 59
2019-10-05 17:00:00 20.4 11 Sudoeste 20 Sudoeste 0 1018.6 -0.4 58
2019-10-05 16:00:00 19.7 9 Sudoeste 16 Sudoeste 0 1018.3 -0.6 58
2019-10-05 15:00:00 19.9 4 Sudoeste 22 Sudoeste 0 1018.8 -0.3 59
2019-10-05 14:00:00 19.9 11 Sudoeste 17 Sudoeste 0 1019 -0.2 61
2019-10-05 13:00:00 19 8 Sudoeste 12 Sudoeste 0 1018.9 0.3 64
2019-10-05 12:00:00 17.7 0 Calma 3 Sudeste 0 1019.1 0.8 78
2019-10-05 11:00:00 15.2 2 Sudeste 4 Sur 0 1019.2 1.5 92
2019-10-05 10:00:00 13.2 0 Calma 4 Nordeste 0 1018.6 1.2 95
2019-10-05 09:00:00 12.3 0 Calma 4 Norte 0 1018.3 0.6 95
2019-10-05 08:00:00 12.5 0 Calma 3 Noroeste 0 1017.7 0 95
2019-10-05 07:00:00 12.6 2 Nordeste 4 Nordeste 0 1017.4 -0.8 95
2019-10-05 06:00:00 12.5 3 Nordeste 5 Nordeste 0 1017.7 -1 95
2019-10-05 05:00:00 12.3 0 Calma 4 Sudoeste 0 1017.7 -0.9 95
2019-10-05 04:00:00 12.2 3 Sur 6 Nordeste 0 1018.2 -0.5 95
2019-10-05 03:00:00 11.3 2 Norte 4 Norte 0 1018.7 0 95
2019-10-05 02:00:00 11.5 3 Norte 5 Norte 0 1018.6 0 95
2019-10-05 01:00:00 12.2 0 Calma 6 Nordeste 0 1018.7 0 94
2019-10-05 00:00:00 12.5 3 Norte 6 Nordeste 0 1018.7 0.2 95
2019-10-04 23:00:00 13.1 4 Norte 7 Norte 0 1018.6 0.3 93
2019-10-04 22:00:00 13.9 0 Calma 6 Norte 0 1018.7 0.6 92
2019-10-04 21:00:00 14.5 0 Calma 5 Noroeste 0 1018.5 0.4 90
2019-10-04 20:00:00 15.7 2 Norte 15 Noroeste 0 1018.3 0 84
2019-10-04 19:00:00 17.5 9 Noroeste 14 Noroeste 0 1018.1 -0.7 73
2019-10-04 18:00:00 19.6 9 Noroeste 14 Noroeste 0 1018.1 -1.3 62
2019-10-04 17:00:00 20.7 4 Sudoeste 8 Sudoeste 0 1018.3 -1.5 58
2019-10-04 16:00:00 19.8 4 Sur 12 Sudoeste 0 1018.8 -1 62
2019-10-04 15:00:00 19.7 4 Sudoeste 10 Noroeste 0 1019.4 -0.2 64
2019-10-04 14:00:00 18.5 2 Norte 13 Sudoeste 0 1019.8 -0.2 69
2019-10-04 13:00:00 18.3 6 Sudoeste 13 Sudoeste 0 1019.8 0.1 75
2019-10-04 12:00:00 17.5 9 Sudoeste 12 Sudoeste 0 1019.6 0.4 95
2019-10-04 11:00:00 16.3 0 Calma 2 Nordeste 0 1020 1 95
2019-10-04 10:00:00 15.8 0 Calma 5 Nordeste 0 1019.7 1 95
2019-10-04 09:00:00 15.1 0 Calma 4 Noroeste 0 1019.2 0.6 95
2019-10-04 08:00:00 15.2 3 Noroeste 6 Noroeste 0 1019 0.3 95
2019-10-04 07:00:00 16 0 Calma 10 Sudoeste 0 1018.7 -0.1 95
2019-10-04 06:00:00 16.3 4 Sudoeste 7 Sudoeste 0.1 1018.6 -0.5 95
2019-10-04 05:00:00 16.5 4 Oeste 12 Norte 0 1018.7 -0.4 95
2019-10-04 04:00:00 17 7 Sudoeste 11 Sudoeste 0 1018.8 -0.6 95
2019-10-04 03:00:00 17 7 Oeste 22 Sudoeste 0 1019.1 -0.3 95
2019-10-04 02:00:00 17 9 Sudoeste 12 Sudoeste 0 1019.1 -0.4 95
2019-10-04 01:00:00 17.3 6 Sudoeste 12 Sudoeste 0 1019.4 0 95
2019-10-04 00:00:00 17.5 5 Sur 15 Sur 0 1019.4 0.2 95
2019-10-03 23:00:00 17.7 5 Sur 17 Sur 0 1019.5 0.9 95
2019-10-03 22:00:00 17.7 8 Sur 17 Sur 0 1019.4 1 95
2019-10-03 21:00:00 17.6 4 Sur 10 Sudoeste 0.3 1019.2 1.3 95
2019-10-03 20:00:00 17.9 5 Sudoeste 14 Sudoeste 1.3 1018.6 0.5 95
2019-10-03 19:00:00 18.4 9 Sudoeste 21 Sudoeste 0.7 1018.4 0.1 93
2019-10-03 18:00:00 19.6 8 Sudoeste 19 Sur 0 1017.9 -0.5 87
2019-10-03 17:00:00 19.5 13 Sudoeste 23 Sur 0 1018.1 -0.8 86
2019-10-03 16:00:00 20.1 16 Sudoeste 23 Sur 0 1018.3 -0.8 80
2019-10-03 15:00:00 20.2 16 Sudoeste 23 Sudoeste 0 1018.4 -1.4 77
2019-10-03 14:00:00 19.9 14 Sur 23 Sudoeste 0 1018.9 -0.8 77
2019-10-03 13:00:00 18.8 14 Sur 28 Sur 0 1019.1 -0.2 78
2019-10-03 12:00:00 17.5 18 Sudoeste 31 Sur 0 1019.8 0.4 84
2019-10-03 11:00:00 15.2 10 Sudoeste 21 Sudoeste 0 1019.7 0.6 90
2019-10-03 10:00:00 14.6 14 Sudoeste 21 Sudoeste 0 1019.3 0.1 92
2019-10-03 09:00:00 12.6 4 Sudoeste 15 Sudoeste 0 1019.4 0 95
2019-10-03 08:00:00 12.4 8 Sudoeste 14 Sudoeste 0 1019.1 -0.4 95
2019-10-03 07:00:00 12.6 10 Sudoeste 16 Sudoeste 0 1019.2 -0.5 97
2019-10-03 06:00:00 11.9 4 Sur 10 Sur 0 1019.4 -0.2 97
2019-10-03 05:00:00 11.5 0 Calma 5 Norte 0 1019.5 -0.1 97
2019-10-03 04:00:00 11.7 2 Nordeste 3 Nordeste 0 1019.7 -0.5 96
2019-10-03 03:00:00 12 0 Calma 6 Nordeste 0 1019.6 -0.8 95
2019-10-03 02:00:00 12.5 0 Calma 5 Nordeste 0 1019.6 -1 95
2019-10-03 01:00:00 13.1 3 Norte 5 Nordeste 0 1020.2 -0.9 95
2019-10-03 00:00:00 13.8 0 Calma 6 Sur 0 1020.4 -1 95
2019-10-02 23:00:00 14.3 4 Norte 8 Nordeste 0 1020.6 -0.8 94
2019-10-02 22:00:00 14.8 5 Nordeste 8 Nordeste 0 1021.1 -0.2 93
2019-10-02 21:00:00 15.2 6 Norte 8 Norte 0 1021.4 0.2 93
2019-10-02 20:00:00 16.3 4 Noroeste 14 Noroeste 0 1021.4 0 89
2019-10-02 19:00:00 17.8 8 Noroeste 13 Noroeste 0 1021.3 -0.3 84
2019-10-02 18:00:00 18.3 0 Calma 3 Este 0.1 1021.2 -0.5 81
2019-10-02 17:00:00 17.8 2 Sudeste 10 Sudeste 0 1021.4 -0.3 84
2019-10-02 16:00:00 17.3 8 Sudeste 12 Sudeste 0 1021.6 -0.2 89
2019-10-02 15:00:00 18 7 Sudoeste 16 Sudoeste 0 1021.7 -0.1 82
2019-10-02 14:00:00 18 11 Sudoeste 16 Sudoeste 0 1021.7 0.3 84
2019-10-02 13:00:00 17.2 4 Sudoeste 15 Sudoeste 0 1021.8 1 91
2019-10-02 12:00:00 16.4 9 Sudoeste 14 Sudoeste 0 1021.8 1.9 94
2019-10-02 11:00:00 16.4 9 Sudoeste 13 Sudoeste 0 1021.4 1.9 95
2019-10-02 10:00:00 15.5 5 Sudoeste 12 Sudoeste 0 1020.8 1.6 95
2019-10-02 09:00:00 14.4 0 Calma 10 Oeste 0 1019.9 0.7 95
2019-10-02 08:00:00 14.7 6 Oeste 13 Oeste 0 1019.5 0.2 95
2019-10-02 07:00:00 14.8 5 Noroeste 15 Oeste 0 1019.2 -0.3 95
2019-10-02 06:00:00 15.5 0 Calma 20 Sudoeste 1 1019.2 -0.3 95
2019-10-02 05:00:00 15.9 5 Sur 17 Sur 0 1019.3 -0.1 95
2019-10-02 04:00:00 15.6 8 Sur 14 Sur 0 1019.5 0.1 95